Time;durP1;ratioP1;P1;durP2;ratioP2;P2;SDS_P1;SDS_P2;PMS_P1;PMS_P2;Temp;Humidity;BMP_temperature;BMP_pressure;BME280_temperature;BME280_humidity;BME280_pressure;Samples;Min_cycle;Max_cycle;Signal;HPM_P1;HPM_P2
2023/09/22 00:00:32;;;;;;;;;;;19.30;99.90;;;;;;6845219;19;20691;-71
2023/09/22 00:03:05;;;;;;;;;;;19.10;99.90;;;;;;6846914;19;19929;-73
2023/09/22 00:05:38;;;;;;;;;;;19.00;99.90;;;;;;6840442;19;25484;-72
2023/09/22 00:08:12;;;;;;;;;;;19.00;99.90;;;;;;6845603;19;20686;-72
2023/09/22 00:10:44;;;;;;;;;;;18.90;99.90;;;;;;6838193;19;20603;-71
2023/09/22 00:13:17;;;;;;;;;;;18.90;99.90;;;;;;6861836;19;20841;-73
2023/09/22 00:15:50;;;;;;;;;;;18.80;99.90;;;;;;6845915;19;21174;-72
2023/09/22 00:18:23;;;;;;;;;;;18.70;99.90;;;;;;6856949;19;20728;-74
2023/09/22 00:20:55;;;;;;;;;;;18.60;99.90;;;;;;6853101;19;21249;-73
2023/09/22 00:23:27;;;;;;;;;;;18.60;99.90;;;;;;6861634;19;21460;-72
2023/09/22 00:26:01;;;;;;;;;;;18.70;99.90;;;;;;6842863;19;19919;-72
2023/09/22 00:28:34;;;;;;;;;;;18.60;99.90;;;;;;6856408;19;20615;-72
2023/09/22 00:31:06;;;;;;;;;;;18.60;99.90;;;;;;6851226;19;21390;-72
2023/09/22 00:33:38;;;;;;;;;;;18.50;99.90;;;;;;6851625;19;20611;-72
2023/09/22 00:36:14;;;;;;;;;;;18.40;99.90;;;;;;6839739;19;19929;-72
2023/09/22 00:38:47;;;;;;;;;;;18.30;99.90;;;;;;6850531;19;20540;-74
2023/09/22 00:41:20;;;;;;;;;;;18.30;99.90;;;;;;6850361;19;21004;-72
2023/09/22 00:43:53;;;;;;;;;;;18.30;99.90;;;;;;6850434;19;21120;-73
2023/09/22 00:46:26;;;;;;;;;;;18.10;99.90;;;;;;6838766;19;20681;-73
2023/09/22 00:49:00;;;;;;;;;;;18.00;99.90;;;;;;6845707;19;21471;-72
2023/09/22 00:51:32;;;;;;;;;;;18.00;99.90;;;;;;6848520;19;20386;-73
2023/09/22 00:54:05;;;;;;;;;;;18.10;99.90;;;;;;6844449;19;20772;-73
2023/09/22 00:56:37;;;;;;;;;;;18.00;99.90;;;;;;6849384;19;21087;-72
2023/09/22 00:59:10;;;;;;;;;;;17.90;99.90;;;;;;6849145;19;21277;-71
2023/09/22 01:01:44;;;;;;;;;;;17.90;99.90;;;;;;6839886;19;21397;-72
2023/09/22 01:04:19;;;;;;;;;;;17.90;99.90;;;;;;6849993;19;20692;-73
2023/09/22 01:06:52;;;;;;;;;;;17.80;99.90;;;;;;6854711;19;21697;-73
2023/09/22 01:09:25;;;;;;;;;;;17.80;99.90;;;;;;6846283;19;20738;-73
2023/09/22 01:11:58;;;;;;;;;;;17.80;99.90;;;;;;6845499;19;21107;-73
2023/09/22 01:14:31;;;;;;;;;;;17.70;99.90;;;;;;6844902;19;21311;-72
2023/09/22 01:17:03;;;;;;;;;;;17.80;99.90;;;;;;6967315;19;19923;-72
2023/09/22 01:19:35;;;;;;;;;;;17.70;99.90;;;;;;7564605;19;20031;-73
2023/09/22 01:22:08;;;;;;;;;;;17.70;99.90;;;;;;7554684;19;19918;-73
2023/09/22 01:24:40;;;;;;;;;;;17.70;99.90;;;;;;7581152;19;19968;-74
2023/09/22 01:27:13;;;;;;;;;;;17.70;99.90;;;;;;7557995;19;19986;-74
2023/09/22 01:29:45;;;;;;;;;;;17.60;99.90;;;;;;7588436;19;19926;-73
2023/09/22 01:32:17;;;;;;;;;;;17.60;99.90;;;;;;7542322;19;19922;-72
2023/09/22 01:34:50;;;;;;;;;;;17.60;99.90;;;;;;7548695;19;20785;-73
2023/09/22 01:37:26;;;;;;;;;;;17.70;99.90;;;;;;7552423;19;20823;-73
2023/09/22 01:39:59;;;;;;;;;;;17.60;99.90;;;;;;7558310;19;19938;-73
2023/09/22 01:42:31;;;;;;;;;;;17.60;99.90;;;;;;7575295;19;19926;-72
2023/09/22 01:45:04;;;;;;;;;;;17.60;99.90;;;;;;7548377;19;20765;-73
2023/09/22 01:47:39;;;;;;;;;;;17.40;99.90;;;;;;7555930;19;20282;-73
2023/09/22 01:50:12;;;;;;;;;;;17.40;99.90;;;;;;7554549;19;19923;-73
2023/09/22 01:52:44;;;;;;;;;;;17.40;99.90;;;;;;7549710;19;21308;-73
2023/09/22 01:55:16;;;;;;;;;;;17.50;99.90;;;;;;7552419;19;19930;-73
2023/09/22 01:57:50;;;;;;;;;;;17.50;99.90;;;;;;7547076;19;20706;-73
2023/09/22 02:00:22;;;;;;;;;;;17.60;99.90;;;;;;7545819;19;19927;-72
2023/09/22 02:02:55;;;;;;;;;;;17.40;99.90;;;;;;7542910;19;19923;-72
2023/09/22 02:05:27;;;;;;;;;;;17.40;99.90;;;;;;7548846;19;19926;-74
2023/09/22 02:08:02;;;;;;;;;;;17.40;99.90;;;;;;7543368;19;19930;-72
2023/09/22 02:10:35;;;;;;;;;;;17.40;99.90;;;;;;7590927;19;20546;-73
2023/09/22 02:13:09;;;;;;;;;;;17.40;99.90;;;;;;7544936;19;19922;-73
2023/09/22 02:15:42;;;;;;;;;;;17.50;99.90;;;;;;7548699;19;19962;-72
2023/09/22 02:18:16;;;;;;;;;;;17.50;99.90;;;;;;7543626;19;21395;-72
2023/09/22 02:20:49;;;;;;;;;;;17.50;99.90;;;;;;7551639;19;19925;-73
2023/09/22 02:23:21;;;;;;;;;;;17.70;99.90;;;;;;7550188;19;19915;-72
2023/09/22 02:25:53;;;;;;;;;;;17.60;99.90;;;;;;7564303;19;20512;-73
2023/09/22 02:28:26;;;;;;;;;;;17.50;99.90;;;;;;7549181;19;19922;-73
2023/09/22 02:30:59;;;;;;;;;;;17.50;99.90;;;;;;7593886;19;19959;-72
2023/09/22 02:33:31;;;;;;;;;;;17.30;99.90;;;;;;7540599;19;19919;-74
2023/09/22 02:36:04;;;;;;;;;;;17.20;99.90;;;;;;7546560;19;19946;-74
2023/09/22 02:38:36;;;;;;;;;;;17.20;99.90;;;;;;7550801;19;19926;-73
2023/09/22 02:41:09;;;;;;;;;;;17.20;99.90;;;;;;7566129;19;20769;-74
2023/09/22 02:43:42;;;;;;;;;;;17.20;99.90;;;;;;7546234;19;19948;-73
2023/09/22 02:46:14;;;;;;;;;;;17.30;99.90;;;;;;7541414;19;20675;-73
2023/09/22 02:48:48;;;;;;;;;;;17.20;99.90;;;;;;7529141;19;20525;-73
2023/09/22 02:51:20;;;;;;;;;;;17.20;99.90;;;;;;7528753;19;19973;-73
2023/09/22 02:53:56;;;;;;;;;;;17.00;99.90;;;;;;7532829;19;19919;-75
2023/09/22 02:56:28;;;;;;;;;;;17.00;99.90;;;;;;7558111;19;19915;-74
2023/09/22 02:59:00;;;;;;;;;;;17.10;99.90;;;;;;7550524;19;19930;-74
2023/09/22 03:01:36;;;;;;;;;;;17.10;99.90;;;;;;7550293;19;19986;-75
2023/09/22 03:04:09;;;;;;;;;;;16.90;99.90;;;;;;7542362;19;19922;-74
2023/09/22 03:06:42;;;;;;;;;;;17.00;99.90;;;;;;7543915;19;20057;-74
2023/09/22 03:09:15;;;;;;;;;;;16.90;99.90;;;;;;7549618;19;20663;-74
2023/09/22 03:11:47;;;;;;;;;;;16.90;99.90;;;;;;7574173;19;19978;-74
2023/09/22 03:14:20;;;;;;;;;;;16.90;99.90;;;;;;7541274;19;20799;-74
2023/09/22 03:16:53;;;;;;;;;;;16.90;99.90;;;;;;7557248;19;19922;-75
2023/09/22 03:19:26;;;;;;;;;;;16.80;99.90;;;;;;7539335;19;19961;-73
2023/09/22 03:21:58;;;;;;;;;;;16.90;99.90;;;;;;7542188;19;19929;-73
2023/09/22 03:24:30;;;;;;;;;;;16.90;99.90;;;;;;7539333;19;19923;-73
2023/09/22 03:27:03;;;;;;;;;;;17.00;99.90;;;;;;7535532;19;19944;-74
2023/09/22 03:29:35;;;;;;;;;;;17.10;99.90;;;;;;7532620;19;19925;-74
2023/09/22 03:32:07;;;;;;;;;;;16.90;99.90;;;;;;7561243;19;19956;-74
2023/09/22 03:34:39;;;;;;;;;;;16.80;99.90;;;;;;7576439;19;19915;-74
2023/09/22 03:37:13;;;;;;;;;;;16.80;99.90;;;;;;7100855;19;20034;-75
2023/09/22 03:39:46;;;;;;;;;;;16.70;99.90;;;;;;6860390;19;20425;-72
2023/09/22 03:42:19;;;;;;;;;;;16.50;99.90;;;;;;6853274;19;19923;-74
2023/09/22 03:44:51;;;;;;;;;;;16.60;99.90;;;;;;6854211;19;20565;-74
2023/09/22 03:47:24;;;;;;;;;;;16.50;99.90;;;;;;6841176;19;21387;-73
2023/09/22 03:49:56;;;;;;;;;;;16.60;99.90;;;;;;6849185;19;20891;-74
2023/09/22 03:52:29;;;;;;;;;;;16.60;99.90;;;;;;6847386;19;21115;-72
2023/09/22 03:55:02;;;;;;;;;;;16.60;99.90;;;;;;6857185;19;20719;-74
2023/09/22 03:57:35;;;;;;;;;;;16.50;99.90;;;;;;6856037;19;20433;-74
2023/09/22 04:00:10;;;;;;;;;;;16.40;99.90;;;;;;6850376;19;23029;-73
2023/09/22 04:02:46;;;;;;;;;;;16.30;99.90;;;;;;6878317;19;20618;-74
2023/09/22 04:05:19;;;;;;;;;;;16.30;99.90;;;;;;6978623;19;19927;-73
2023/09/22 04:07:54;;;;;;;;;;;16.00;99.90;;;;;;7113525;19;21315;-72
2023/09/22 04:10:26;;;;;;;;;;;15.90;99.90;;;;;;6962665;19;21569;-73
2023/09/22 04:12:59;;;;;;;;;;;15.70;99.90;;;;;;6850187;19;21336;-71
2023/09/22 04:15:32;;;;;;;;;;;15.70;99.90;;;;;;7002817;19;20297;-73
2023/09/22 04:18:06;;;;;;;;;;;15.60;99.90;;;;;;7118981;19;20338;-73
2023/09/22 04:20:43;;;;;;;;;;;15.70;99.90;;;;;;7116351;19;19926;-71
2023/09/22 04:23:17;;;;;;;;;;;15.60;99.90;;;;;;6911385;19;21361;-72
2023/09/22 04:25:53;;;;;;;;;;;15.40;99.90;;;;;;6864527;19;20677;-72
2023/09/22 04:28:25;;;;;;;;;;;15.40;99.90;;;;;;6868672;19;20649;-74
2023/09/22 04:31:00;;;;;;;;;;;15.40;99.90;;;;;;6890043;19;20499;-79
2023/09/22 04:33:33;;;;;;;;;;;15.30;99.90;;;;;;6915409;19;20287;-72
2023/09/22 04:36:05;;;;;;;;;;;15.30;99.90;;;;;;6892864;19;20417;-79
2023/09/22 04:38:38;;;;;;;;;;;15.30;99.90;;;;;;6888778;19;20585;-73
2023/09/22 04:41:10;;;;;;;;;;;15.20;99.90;;;;;;6879901;19;21032;-74
2023/09/22 04:43:43;;;;;;;;;;;15.20;99.90;;;;;;6858905;19;20833;-73
2023/09/22 04:46:16;;;;;;;;;;;15.00;99.90;;;;;;6844544;19;20186;-74
2023/09/22 04:48:49;;;;;;;;;;;15.00;99.90;;;;;;6849869;19;21746;-71
2023/09/22 04:51:21;;;;;;;;;;;15.10;99.90;;;;;;6855762;19;21375;-72
2023/09/22 04:53:54;;;;;;;;;;;15.00;99.90;;;;;;6862467;19;19918;-72
2023/09/22 04:56:27;;;;;;;;;;;15.00;99.90;;;;;;6855040;19;20893;-74
2023/09/22 04:58:59;;;;;;;;;;;14.90;99.90;;;;;;6859350;19;20982;-73
2023/09/22 05:01:47;;;;;;;;;;;15.00;99.90;;;;;;6883506;19;21183;-74
2023/09/22 05:04:23;;;;;;;;;;;14.90;99.90;;;;;;6893945;19;19922;-73
2023/09/22 05:06:56;;;;;;;;;;;14.90;99.90;;;;;;6852447;19;20757;-74
2023/09/22 05:09:29;;;;;;;;;;;15.00;99.90;;;;;;6862199;19;20516;-74
2023/09/22 05:12:01;;;;;;;;;;;14.90;99.90;;;;;;6858166;19;19927;-73
2023/09/22 05:14:34;;;;;;;;;;;14.80;99.90;;;;;;7407263;19;19933;-73
2023/09/22 05:17:06;;;;;;;;;;;14.90;99.90;;;;;;7595392;19;19919;-73
2023/09/22 05:19:38;;;;;;;;;;;15.00;99.90;;;;;;7576631;19;19922;-73
2023/09/22 05:22:10;;;;;;;;;;;14.90;99.90;;;;;;7569161;19;20494;-73
2023/09/22 05:24:43;;;;;;;;;;;14.80;99.90;;;;;;7556290;19;19934;-73
2023/09/22 05:27:15;;;;;;;;;;;14.80;99.90;;;;;;7567784;19;19952;-75
2023/09/22 05:29:51;;;;;;;;;;;14.80;99.90;;;;;;7565041;19;20289;-73
2023/09/22 05:32:24;;;;;;;;;;;14.80;99.90;;;;;;7527393;19;19923;-73
2023/09/22 05:34:57;;;;;;;;;;;14.80;99.90;;;;;;7564506;19;20444;-76
2023/09/22 05:37:31;;;;;;;;;;;14.80;99.90;;;;;;7559781;19;19925;-73
2023/09/22 05:40:10;;;;;;;;;;;14.70;99.90;;;;;;7577059;19;19930;-73
2023/09/22 05:42:43;;;;;;;;;;;14.90;99.90;;;;;;7581749;19;19948;-75
2023/09/22 05:45:15;;;;;;;;;;;14.80;99.90;;;;;;7586503;19;19976;-71
2023/09/22 05:47:47;;;;;;;;;;;14.80;99.90;;;;;;7591737;19;19931;-74
2023/09/22 05:50:23;;;;;;;;;;;14.80;99.90;;;;;;7583707;19;21184;-74
2023/09/22 05:52:55;;;;;;;;;;;14.90;99.90;;;;;;7591485;19;20269;-74
2023/09/22 05:55:28;;;;;;;;;;;14.90;99.90;;;;;;7593788;19;20515;-73
2023/09/22 05:58:00;;;;;;;;;;;14.90;99.90;;;;;;7598851;19;19939;-73
2023/09/22 06:00:34;;;;;;;;;;;14.80;99.90;;;;;;7588213;19;19929;-75
2023/09/22 06:03:07;;;;;;;;;;;14.70;99.90;;;;;;7592641;19;20021;-72
2023/09/22 06:05:39;;;;;;;;;;;14.70;99.90;;;;;;7591498;19;19922;-71
2023/09/22 06:08:12;;;;;;;;;;;14.70;99.90;;;;;;7588942;19;19922;-75
2023/09/22 06:10:44;;;;;;;;;;;14.50;99.90;;;;;;7588631;19;19926;-74
2023/09/22 06:13:16;;;;;;;;;;;14.50;99.90;;;;;;7602038;19;19942;-73
2023/09/22 06:15:48;;;;;;;;;;;14.50;99.90;;;;;;7589937;19;19926;-72
2023/09/22 06:18:21;;;;;;;;;;;14.50;99.90;;;;;;7585344;19;19930;-73
2023/09/22 06:20:56;;;;;;;;;;;14.50;99.90;;;;;;7590670;19;19933;-74
2023/09/22 06:23:29;;;;;;;;;;;14.40;99.90;;;;;;7585144;19;19922;-74
2023/09/22 06:26:02;;;;;;;;;;;14.40;99.90;;;;;;7590674;19;19931;-74
2023/09/22 06:28:34;;;;;;;;;;;14.40;99.90;;;;;;7575159;19;20284;-74
2023/09/22 06:31:06;;;;;;;;;;;14.50;99.90;;;;;;7592067;19;19942;-74
2023/09/22 06:33:39;;;;;;;;;;;14.40;99.90;;;;;;7593935;19;19926;-74
2023/09/22 06:36:11;;;;;;;;;;;14.40;99.90;;;;;;7588721;19;19923;-74
2023/09/22 06:38:43;;;;;;;;;;;14.50;99.90;;;;;;7593578;19;19922;-74
2023/09/22 06:41:17;;;;;;;;;;;14.40;99.90;;;;;;7593393;19;19944;-74
2023/09/22 06:43:50;;;;;;;;;;;14.40;99.90;;;;;;7581813;19;20874;-74
2023/09/22 06:46:29;;;;;;;;;;;14.40;99.90;;;;;;7587149;19;19921;-74
2023/09/22 06:49:07;;;;;;;;;;;14.40;99.90;;;;;;7587792;19;19930;-75
2023/09/22 06:51:40;;;;;;;;;;;14.40;99.90;;;;;;7591222;19;20364;-72
2023/09/22 06:54:12;;;;;;;;;;;14.50;99.90;;;;;;7596652;19;19927;-73
2023/09/22 06:56:45;;;;;;;;;;;14.60;99.90;;;;;;7595160;19;19934;-74
2023/09/22 06:59:21;;;;;;;;;;;14.40;99.90;;;;;;7589416;19;20348;-73
2023/09/22 07:01:54;;;;;;;;;;;14.30;99.90;;;;;;7586905;19;19961;-73
2023/09/22 07:04:27;;;;;;;;;;;14.20;99.90;;;;;;7579149;19;20010;-73
2023/09/22 07:07:01;;;;;;;;;;;14.30;99.90;;;;;;7588202;19;20788;-72
2023/09/22 07:09:33;;;;;;;;;;;14.30;99.90;;;;;;7590826;19;19918;-73
2023/09/22 07:12:06;;;;;;;;;;;14.20;99.90;;;;;;7587973;19;19925;-74
2023/09/22 07:14:38;;;;;;;;;;;14.20;99.90;;;;;;7585088;19;19919;-73
2023/09/22 07:17:11;;;;;;;;;;;14.30;99.90;;;;;;7591635;19;19919;-73
2023/09/22 07:19:43;;;;;;;;;;;14.30;99.90;;;;;;7581523;19;20907;-73
2023/09/22 07:22:15;;;;;;;;;;;14.30;99.90;;;;;;7590451;19;19922;-74
2023/09/22 07:24:50;;;;;;;;;;;14.40;99.90;;;;;;7591928;19;19957;-75
2023/09/22 07:27:25;;;;;;;;;;;14.40;99.90;;;;;;7577278;19;19929;-75
2023/09/22 07:29:57;;;;;;;;;;;14.40;99.90;;;;;;7600487;19;19918;-74
2023/09/22 07:32:30;;;;;;;;;;;14.40;99.90;;;;;;7591870;19;19938;-75
2023/09/22 07:35:02;;;;;;;;;;;14.40;99.90;;;;;;7599741;19;19929;-74
2023/09/22 07:37:34;;;;;;;;;;;14.40;99.90;;;;;;7584036;19;19930;-74
2023/09/22 07:40:09;;;;;;;;;;;14.40;99.90;;;;;;7588403;19;20014;-74
2023/09/22 07:42:44;;;;;;;;;;;14.40;99.90;;;;;;7607922;19;19937;-73
2023/09/22 07:45:17;;;;;;;;;;;14.50;99.90;;;;;;7606958;19;19933;-75
2023/09/22 07:47:49;;;;;;;;;;;14.50;99.90;;;;;;7609898;19;19964;-76
2023/09/22 07:50:22;;;;;;;;;;;14.50;99.90;;;;;;7609138;19;19953;-74
2023/09/22 07:52:54;;;;;;;;;;;14.50;99.90;;;;;;7604300;19;19915;-74
2023/09/22 07:55:26;;;;;;;;;;;14.50;99.90;;;;;;7606060;19;19926;-73
2023/09/22 07:57:59;;;;;;;;;;;14.40;99.90;;;;;;7604014;19;19925;-74
2023/09/22 08:00:32;;;;;;;;;;;14.40;99.90;;;;;;7607883;19;20482;-73
2023/09/22 08:03:04;;;;;;;;;;;14.40;99.90;;;;;;7607856;19;19918;-75
2023/09/22 08:05:39;;;;;;;;;;;14.30;99.90;;;;;;7604279;19;19926;-74
2023/09/22 08:08:12;;;;;;;;;;;14.40;99.90;;;;;;7606798;19;19948;-75
2023/09/22 08:10:44;;;;;;;;;;;14.30;99.90;;;;;;7601923;19;19934;-74
2023/09/22 08:13:16;;;;;;;;;;;14.50;99.90;;;;;;7476389;19;21822;-74
2023/09/22 08:15:49;;;;;;;;;;;14.50;99.90;;;;;;6857163;19;20789;-74
2023/09/22 08:18:24;;;;;;;;;;;14.50;99.90;;;;;;6859000;19;20662;-73
2023/09/22 08:20:56;;;;;;;;;;;14.50;99.90;;;;;;6870292;19;21234;-73
2023/09/22 08:23:29;;;;;;;;;;;14.50;99.90;;;;;;6849104;19;20627;-74
2023/09/22 08:26:20;;;;;;;;;;;14.50;99.90;;;;;;6853949;19;19930;-72
2023/09/22 08:28:53;;;;;;;;;;;14.70;99.90;;;;;;6846670;19;19923;-72
2023/09/22 08:31:26;;;;;;;;;;;14.70;99.90;;;;;;6857024;19;20582;-72
2023/09/22 08:33:59;;;;;;;;;;;14.80;99.90;;;;;;6843145;19;20464;-72
2023/09/22 08:36:33;;;;;;;;;;;14.80;99.90;;;;;;6850864;19;20548;-72
2023/09/22 08:39:08;;;;;;;;;;;14.80;99.90;;;;;;6854009;19;19976;-74
2023/09/22 08:41:41;;;;;;;;;;;14.80;99.90;;;;;;6847966;19;19927;-74
2023/09/22 08:44:13;;;;;;;;;;;14.90;99.90;;;;;;6867672;19;21399;-73
2023/09/22 08:46:47;;;;;;;;;;;14.90;99.90;;;;;;6847084;19;21111;-73
2023/09/22 08:49:23;;;;;;;;;;;14.90;99.90;;;;;;6858557;19;21330;-72
2023/09/22 08:51:56;;;;;;;;;;;14.80;99.90;;;;;;6847615;19;19918;-74
2023/09/22 08:54:28;;;;;;;;;;;14.70;99.90;;;;;;6854340;19;20515;-75
2023/09/22 08:57:01;;;;;;;;;;;14.70;99.90;;;;;;6847814;19;19922;-72
2023/09/22 08:59:34;;;;;;;;;;;14.70;99.90;;;;;;6867590;19;20628;-71
2023/09/22 09:02:08;;;;;;;;;;;14.70;99.90;;;;;;6886507;19;20633;-74
2023/09/22 09:04:41;;;;;;;;;;;14.60;99.90;;;;;;6869420;19;19934;-72
2023/09/22 09:07:18;;;;;;;;;;;14.60;99.90;;;;;;6867067;19;20770;-72
2023/09/22 09:09:55;;;;;;;;;;;14.50;99.90;;;;;;7218552;19;19925;-72
2023/09/22 09:12:29;;;;;;;;;;;14.60;99.90;;;;;;7600896;19;20001;-75
2023/09/22 09:15:02;;;;;;;;;;;14.60;99.90;;;;;;7594356;19;19915;-76
2023/09/22 09:17:34;;;;;;;;;;;14.60;99.90;;;;;;6569952;19;10000296;-74
2023/09/22 09:20:07;;;;;;;;;;;14.50;99.90;;;;;;7584190;19;19947;-75
2023/09/22 09:22:40;;;;;;;;;;;14.60;99.90;;;;;;7582893;19;19929;-72
2023/09/22 09:25:14;;;;;;;;;;;14.50;99.90;;;;;;7586740;19;19927;-75
2023/09/22 09:27:58;;;;;;;;;;;14.60;99.90;;;;;;7594249;19;20002;-75
2023/09/22 09:30:31;;;;;;;;;;;14.70;99.90;;;;;;7593553;19;19926;-75
2023/09/22 09:33:09;;;;;;;;;;;14.60;99.90;;;;;;7596518;19;19951;-76
2023/09/22 09:35:42;;;;;;;;;;;14.60;99.90;;;;;;7585116;19;21898;-75
2023/09/22 09:38:27;;;;;;;;;;;14.60;99.90;;;;;;7597480;19;19923;-75
2023/09/22 09:40:59;;;;;;;;;;;14.50;99.90;;;;;;7582924;19;19927;-75
2023/09/22 09:43:33;;;;;;;;;;;14.60;99.90;;;;;;7583704;19;19926;-75
2023/09/22 09:46:08;;;;;;;;;;;14.70;99.90;;;;;;7582935;19;20015;-75
2023/09/22 09:48:42;;;;;;;;;;;14.70;99.90;;;;;;7573818;19;20881;-73
2023/09/22 09:51:19;;;;;;;;;;;14.70;99.90;;;;;;6925316;19;21575;-72
2023/09/22 09:53:57;;;;;;;;;;;14.70;99.90;;;;;;6843505;19;21113;-74
2023/09/22 09:56:30;;;;;;;;;;;14.60;99.90;;;;;;6839366;19;20965;-74
2023/09/22 09:59:04;;;;;;;;;;;14.60;99.90;;;;;;6839886;19;19923;-72
2023/09/22 10:01:39;;;;;;;;;;;14.70;99.90;;;;;;6840867;19;19922;-72
2023/09/22 10:04:11;;;;;;;;;;;14.70;99.90;;;;;;6840495;19;19929;-72
2023/09/22 10:06:44;;;;;;;;;;;14.60;99.90;;;;;;6838373;19;19922;-73
2023/09/22 10:09:23;;;;;;;;;;;14.50;99.90;;;;;;6840855;19;20682;-72
2023/09/22 10:11:58;;;;;;;;;;;14.50;99.90;;;;;;6846332;19;20862;-72
2023/09/22 10:14:43;;;;;;;;;;;14.50;99.90;;;;;;6842106;19;20663;-73
2023/09/22 10:17:21;;;;;;;;;;;14.50;99.90;;;;;;6847186;19;19953;-73
2023/09/22 10:19:54;;;;;;;;;;;14.50;99.90;;;;;;6842588;19;21182;-73
2023/09/22 10:22:29;;;;;;;;;;;14.60;99.90;;;;;;6838294;19;21175;-74
2023/09/22 10:25:13;;;;;;;;;;;14.50;99.90;;;;;;6886189;19;21269;-74
2023/09/22 10:27:54;;;;;;;;;;;14.60;99.90;;;;;;7263858;19;19922;-74
2023/09/22 10:30:43;;;;;;;;;;;14.50;99.90;;;;;;7211614;19;20650;-73
2023/09/22 10:33:22;;;;;;;;;;;14.60;99.90;;;;;;7247947;19;20491;-73
2023/09/22 10:35:55;;;;;;;;;;;14.60;99.90;;;;;;7244516;19;19927;-72
2023/09/22 10:38:28;;;;;;;;;;;14.70;99.90;;;;;;7303808;19;19914;-73
2023/09/22 10:41:04;;;;;;;;;;;14.70;99.90;;;;;;7316085;19;20243;-73
2023/09/22 10:43:54;;;;;;;;;;;14.60;99.90;;;;;;7298774;19;19922;-72
2023/09/22 10:46:27;;;;;;;;;;;14.30;99.90;;;;;;7267148;19;20005;-72
2023/09/22 10:48:59;;;;;;;;;;;14.30;99.90;;;;;;7243135;19;20894;-73
2023/09/22 10:51:42;;;;;;;;;;;14.20;99.90;;;;;;7164939;19;19923;-73
2023/09/22 10:54:15;;;;;;;;;;;14.30;99.90;;;;;;7239480;19;19951;-73
2023/09/22 10:56:51;;;;;;;;;;;14.40;99.90;;;;;;7253517;19;20012;-73
2023/09/22 10:59:29;;;;;;;;;;;14.10;99.90;;;;;;7219025;19;19945;-73
2023/09/22 11:02:02;;;;;;;;;;;14.20;99.90;;;;;;7241907;19;19937;-73
2023/09/22 11:04:41;;;;;;;;;;;14.10;99.90;;;;;;7229936;19;19915;-73
2023/09/22 11:07:31;;;;;;;;;;;14.00;99.90;;;;;;7207158;19;20438;-73
2023/09/22 11:10:04;;;;;;;;;;;14.10;99.90;;;;;;7215673;19;19927;-73
2023/09/22 11:12:37;;;;;;;;;;;14.10;99.90;;;;;;7604664;19;19922;-73
2023/09/22 11:15:09;;;;;;;;;;;14.00;99.90;;;;;;7598959;19;19926;-73
2023/09/22 11:17:46;;;;;;;;;;;14.10;99.90;;;;;;7608677;19;19931;-73
2023/09/22 11:20:21;;;;;;;;;;;14.00;99.90;;;;;;7605502;19;19978;-72
2023/09/22 11:22:53;;;;;;;;;;;14.00;99.90;;;;;;7603490;19;19956;-73
2023/09/22 11:25:25;;;;;;;;;;;13.90;99.90;;;;;;7604274;19;19923;-73
2023/09/22 11:27:59;;;;;;;;;;;13.90;99.90;;;;;;7606810;19;20022;-72
2023/09/22 11:30:33;;;;;;;;;;;13.90;99.90;;;;;;7597168;19;19947;-74
2023/09/22 11:33:13;;;;;;;;;;;14.00;99.90;;;;;;7596726;19;19915;-74
2023/09/22 11:35:47;;;;;;;;;;;14.00;99.90;;;;;;7601207;19;19941;-73
2023/09/22 11:38:24;;;;;;;;;;;14.00;99.90;;;;;;7602531;19;19933;-73
2023/09/22 11:41:07;;;;;;;;;;;14.10;99.90;;;;;;7591054;19;19926;-73
2023/09/22 11:43:41;;;;;;;;;;;14.00;99.90;;;;;;7593966;19;20340;-73
2023/09/22 11:46:15;;;;;;;;;;;14.10;99.90;;;;;;7603071;19;19926;-74
2023/09/22 11:48:59;;;;;;;;;;;14.10;99.90;;;;;;7594784;19;20432;-73
2023/09/22 11:51:41;;;;;;;;;;;14.20;99.90;;;;;;7591957;19;19943;-73
2023/09/22 11:54:14;;;;;;;;;;;14.20;99.90;;;;;;7602173;19;20694;-74
2023/09/22 11:56:50;;;;;;;;;;;14.10;99.90;;;;;;7603882;19;19922;-73
2023/09/22 11:59:36;;;;;;;;;;;14.20;99.90;;;;;;7586643;19;20233;-73
2023/09/22 12:02:08;;;;;;;;;;;14.30;99.90;;;;;;7590921;19;20515;-73
2023/09/22 12:04:40;;;;;;;;;;;14.30;99.90;;;;;;7590936;19;20368;-73
2023/09/22 12:07:13;;;;;;;;;;;14.30;99.90;;;;;;7599905;19;20407;-74
2023/09/22 12:09:45;;;;;;;;;;;14.30;99.90;;;;;;7595620;19;19931;-72
2023/09/22 12:12:17;;;;;;;;;;;14.20;99.90;;;;;;7598715;19;19914;-74
2023/09/22 12:14:50;;;;;;;;;;;14.10;99.90;;;;;;7604230;19;19915;-74
2023/09/22 12:17:22;;;;;;;;;;;14.10;99.90;;;;;;7603752;19;21073;-73
2023/09/22 12:19:55;;;;;;;;;;;14.10;99.90;;;;;;7604903;19;20506;-73
2023/09/22 12:22:35;;;;;;;;;;;14.10;99.90;;;;;;7476613;19;9999663;-73
2023/09/22 12:25:08;;;;;;;;;;;14.20;99.90;;;;;;7084305;19;9999737;-73
2023/09/22 12:27:40;;;;;;;;;;;14.30;99.90;;;;;;7601281;19;19929;-73
2023/09/22 12:30:13;;;;;;;;;;;14.10;99.90;;;;;;7597685;19;20108;-73
2023/09/22 12:32:45;;;;;;;;;;;14.20;99.90;;;;;;7579868;19;19937;-73
2023/09/22 12:35:17;;;;;;;;;;;14.10;99.90;;;;;;7586825;19;19926;-73
2023/09/22 12:37:52;;;;;;;;;;;14.20;99.90;;;;;;7595565;19;19922;-72
2023/09/22 12:40:25;;;;;;;;;;;14.30;99.90;;;;;;7600122;19;20490;-72
2023/09/22 12:42:58;;;;;;;;;;;14.30;99.90;;;;;;7602892;19;19941;-73
2023/09/22 12:45:31;;;;;;;;;;;14.30;99.90;;;;;;7595830;19;19919;-72
2023/09/22 12:48:04;;;;;;;;;;;14.20;99.90;;;;;;7593996;19;19922;-72
2023/09/22 12:50:37;;;;;;;;;;;14.10;99.90;;;;;;7471433;19;19922;-72
2023/09/22 12:53:09;;;;;;;;;;;14.10;99.90;;;;;;7137175;19;19935;-71
2023/09/22 12:55:42;;;;;;;;;;;14.00;99.90;;;;;;7141767;19;19922;-72
2023/09/22 12:58:15;;;;;;;;;;;13.90;99.90;;;;;;7122228;19;20514;-72
2023/09/22 13:00:48;;;;;;;;;;;14.00;99.90;;;;;;7123285;19;20507;-72
2023/09/22 13:03:21;;;;;;;;;;;13.90;99.90;;;;;;7113700;19;19934;-72
2023/09/22 13:05:54;;;;;;;;;;;14.00;99.90;;;;;;7346410;19;19939;-73
2023/09/22 13:08:27;;;;;;;;;;;14.10;99.90;;;;;;7578495;19;20902;-74
2023/09/22 13:10:59;;;;;;;;;;;14.10;99.90;;;;;;7595385;19;19914;-73
2023/09/22 13:13:34;;;;;;;;;;;14.00;99.90;;;;;;7602292;19;19944;-72
2023/09/22 13:16:08;;;;;;;;;;;14.10;99.90;;;;;;7560172;19;19910;-72
2023/09/22 13:18:44;;;;;;;;;;;13.90;99.90;;;;;;7589094;19;20802;-73
2023/09/22 13:21:16;;;;;;;;;;;13.80;99.90;;;;;;7596898;19;19957;-73
2023/09/22 13:23:48;;;;;;;;;;;13.80;99.90;;;;;;7600234;19;19925;-73
2023/09/22 13:26:23;;;;;;;;;;;13.80;99.90;;;;;;7588760;19;19926;-73
2023/09/22 13:28:56;;;;;;;;;;;13.90;99.90;;;;;;7592724;19;19918;-72
2023/09/22 13:31:29;;;;;;;;;;;14.00;99.90;;;;;;7591162;19;19926;-73
2023/09/22 13:34:02;;;;;;;;;;;14.00;99.90;;;;;;7600868;19;19929;-73
2023/09/22 13:36:34;;;;;;;;;;;14.00;99.90;;;;;;7587395;19;19954;-73
2023/09/22 13:39:06;;;;;;;;;;;13.80;99.90;;;;;;7581519;19;22629;-72
2023/09/22 13:41:38;;;;;;;;;;;13.80;99.90;;;;;;7590027;19;20010;-73
2023/09/22 13:44:10;;;;;;;;;;;13.80;99.90;;;;;;7590691;19;19977;-72
2023/09/22 13:46:45;;;;;;;;;;;13.70;99.90;;;;;;7589044;19;19937;-73
2023/09/22 13:49:17;;;;;;;;;;;13.70;99.90;;;;;;7410211;19;20496;-71
2023/09/22 13:51:50;;;;;;;;;;;13.70;99.90;;;;;;7090230;19;20291;-71
2023/09/22 13:54:23;;;;;;;;;;;13.80;99.90;;;;;;7057161;19;19939;-72
2023/09/22 13:56:56;;;;;;;;;;;13.80;99.90;;;;;;7106150;19;19915;-71
2023/09/22 13:59:29;;;;;;;;;;;13.80;99.90;;;;;;7063811;19;19923;-71
2023/09/22 14:02:01;;;;;;;;;;;13.80;99.90;;;;;;7047339;19;19919;-71
2023/09/22 14:04:34;;;;;;;;;;;13.90;99.90;;;;;;7086668;19;19955;-71
2023/09/22 14:07:07;;;;;;;;;;;13.90;99.90;;;;;;7081489;19;20242;-71
2023/09/22 14:09:40;;;;;;;;;;;13.90;99.90;;;;;;7043881;19;19919;-71
2023/09/22 14:12:13;;;;;;;;;;;13.90;99.90;;;;;;7038900;19;19923;-73
2023/09/22 14:14:48;;;;;;;;;;;13.80;99.90;;;;;;7068288;19;19921;-74
2023/09/22 14:17:20;;;;;;;;;;;13.90;99.90;;;;;;7150613;19;19980;-71
2023/09/22 14:19:53;;;;;;;;;;;13.90;99.90;;;;;;7135599;19;19923;-73
2023/09/22 14:22:25;;;;;;;;;;;13.90;99.90;;;;;;7090109;19;20119;-72
2023/09/22 14:24:58;;;;;;;;;;;13.90;99.90;;;;;;7120731;19;19973;-71
2023/09/22 14:27:31;;;;;;;;;;;13.80;99.90;;;;;;7170083;19;19945;-70
2023/09/22 14:30:07;;;;;;;;;;;13.80;99.90;;;;;;7150198;19;19918;-71
2023/09/22 14:32:41;;;;;;;;;;;13.70;99.90;;;;;;7130864;19;19923;-71
2023/09/22 14:35:13;;;;;;;;;;;13.70;99.90;;;;;;7115789;19;21405;-71
2023/09/22 14:37:46;;;;;;;;;;;13.60;99.90;;;;;;7142686;19;19930;-73
2023/09/22 14:40:19;;;;;;;;;;;13.50;99.90;;;;;;7108188;19;20480;-72
2023/09/22 14:42:55;;;;;;;;;;;13.40;99.90;;;;;;7127841;19;20619;-72
2023/09/22 14:45:28;;;;;;;;;;;13.30;99.90;;;;;;7109945;19;21209;-72
2023/09/22 14:48:01;;;;;;;;;;;13.30;99.90;;;;;;7160398;19;22026;-71
2023/09/22 14:50:33;;;;;;;;;;;13.20;99.90;;;;;;7142020;19;20416;-71
2023/09/22 14:53:06;;;;;;;;;;;13.20;99.90;;;;;;7095493;19;21293;-73